createdAt,value
2023-03-07T00:00:19.834Z,98021.53
2023-03-07T00:01:27.206Z,98022.47
2023-03-07T00:02:32.400Z,98017.22
2023-03-07T00:03:37.066Z,98013.97
2023-03-07T00:04:45.052Z,98017.59
2023-03-07T00:05:49.065Z,98017.59
2023-03-07T00:06:56.027Z,98021.16
2023-03-07T00:07:59.950Z,98016.75
2023-03-07T00:09:06.816Z,98016.75
2023-03-07T00:10:14.528Z,98023.03
2023-03-07T00:11:19.857Z,98019.66
2023-03-07T00:12:24.622Z,98017.97
2023-03-07T00:13:34.639Z,98012.06
2023-03-07T00:14:38.529Z,98022.47
2023-03-07T00:15:42.345Z,98019.75
2023-03-07T00:16:52.064Z,98012.81
2023-03-07T00:17:56.230Z,98016.28
2023-03-07T00:19:00.941Z,98011.13
2023-03-07T00:20:09.688Z,98021.53
2023-03-07T00:21:20.841Z,98013.66
2023-03-07T00:22:25.317Z,98012.91
2023-03-07T00:23:29.591Z,98015.63
2023-03-07T00:24:34.201Z,98016.47
2023-03-07T00:25:38.189Z,98014.69
2023-03-07T00:26:45.529Z,98011.22
2023-03-07T00:27:49.438Z,98012.16
2023-03-07T00:28:55.680Z,98014.78
2023-03-07T00:29:59.615Z,98006.97
2023-03-07T00:31:11.879Z,98012.16
2023-03-07T00:32:15.794Z,98018.34
2023-03-07T00:33:19.750Z,98012.22
2023-03-07T00:34:23.732Z,98012.16
2023-03-07T00:35:27.461Z,98007.84
2023-03-07T00:36:31.562Z,98012.16
2023-03-07T00:37:35.311Z,98004.34
2023-03-07T00:38:39.460Z,98008.59
2023-03-07T00:39:43.455Z,98004.19
2023-03-07T00:40:47.309Z,98004.34
2023-03-07T00:41:50.927Z,98007.56
2023-03-07T00:42:54.792Z,98004.19
2023-03-07T00:43:58.713Z,98004.09
2023-03-07T00:45:02.763Z,97997.16
2023-03-07T00:46:14.161Z,98002.31
2023-03-07T00:47:18.056Z,97999.03
2023-03-07T00:48:23.463Z,98000.81
2023-03-07T00:49:27.708Z,97997.25
2023-03-07T00:50:31.545Z,97998.94
2023-03-07T00:51:35.795Z,97993.69
2023-03-07T00:52:39.474Z,97994.53
2023-03-07T00:53:44.278Z,97998.94
2023-03-07T00:54:48.072Z,97993.88
2023-03-07T00:56:09.141Z,97990.50
2023-03-07T00:57:13.091Z,97993.03
2023-03-07T00:58:16.786Z,97990.31
2023-03-07T00:59:20.883Z,97984.25
2023-03-07T01:00:25.229Z,97996.41
2023-03-07T01:01:29.051Z,97988.63
2023-03-07T01:02:32.830Z,97988.81
2023-03-07T01:03:37.304Z,97985.53
2023-03-07T01:04:41.006Z,97986.28
2023-03-07T01:05:45.622Z,97982.81
2023-03-07T01:06:50.626Z,97984.59
2023-03-07T01:07:54.761Z,97977.69
2023-03-07T01:09:03.199Z,97986.38
2023-03-07T01:10:09.387Z,97989.84
2023-03-07T01:11:14.918Z,97977.69
2023-03-07T01:12:20.283Z,97981.13
2023-03-07T01:13:24.409Z,97981.03
2023-03-07T01:14:28.084Z,97976.72
2023-03-07T01:15:32.403Z,97978.41
2023-03-07T01:16:38.820Z,97983.66
2023-03-07T01:17:42.805Z,97976.72
2023-03-07T01:18:51.940Z,97978.59
2023-03-07T01:19:55.636Z,97973.44
2023-03-07T01:20:59.344Z,97972.69
2023-03-07T01:22:03.288Z,97976.06
2023-03-07T01:23:11.217Z,97969.03
2023-03-07T01:24:16.655Z,97968.97
2023-03-07T01:25:20.776Z,97969.03
2023-03-07T01:26:29.149Z,97966.25
2023-03-07T01:27:33.430Z,97962.78
2023-03-07T01:28:37.672Z,97967.81
2023-03-07T01:29:41.516Z,97961.75
2023-03-07T01:30:45.465Z,97961.75
2023-03-07T01:31:49.396Z,97962.47
2023-03-07T01:32:59.042Z,97955.53
2023-03-07T01:34:04.289Z,97960.69
2023-03-07T01:35:15.127Z,97955.38
2023-03-07T01:36:30.760Z,97956.28
2023-03-07T01:37:34.884Z,97959.00
2023-03-07T01:38:38.711Z,97953.59
2023-03-07T01:39:43.167Z,97950.97
2023-03-07T01:40:47.438Z,97950.03
2023-03-07T01:41:51.070Z,97952.44
2023-03-07T01:42:55.032Z,97953.19
2023-03-07T01:44:00.957Z,97949.56
2023-03-07T01:45:28.095Z,97943.38
2023-03-07T01:46:49.098Z,97938.97
2023-03-07T01:47:52.775Z,97937.91
2023-03-07T01:49:05.915Z,97947.50
2023-03-07T01:50:17.974Z,97947.41
2023-03-07T01:51:23.000Z,97947.28
2023-03-07T01:52:41.944Z,97953.59
2023-03-07T01:53:50.917Z,97947.94
2023-03-07T01:55:09.693Z,97953.13
2023-03-07T01:56:13.823Z,97941.22
2023-03-07T01:57:23.794Z,97947.88
2023-03-07T01:58:27.630Z,97946.25
2023-03-07T01:59:37.117Z,97943.63
2023-03-07T02:00:44.775Z,97951.25
2023-03-07T02:01:53.264Z,97939.78
2023-03-07T02:03:29.413Z,97942.25
2023-03-07T02:04:45.100Z,97944.88
2023-03-07T02:06:14.187Z,97945.72
2023-03-07T02:07:25.197Z,97941.47
2023-03-07T02:08:34.263Z,97938.84
2023-03-07T02:09:40.920Z,97935.28
2023-03-07T02:10:49.022Z,97949.25
2023-03-07T02:11:53.179Z,97948.34
2023-03-07T02:12:56.819Z,97947.50
2023-03-07T02:14:00.639Z,97948.41
2023-03-07T02:15:12.898Z,97950.13
2023-03-07T02:16:17.103Z,97949.19
2023-03-07T02:17:21.359Z,97949.19
2023-03-07T02:18:30.249Z,97944.66
2023-03-07T02:20:12.996Z,97942.88
2023-03-07T02:21:22.919Z,97942.78
2023-03-07T02:22:27.891Z,97948.03
2023-03-07T02:23:52.117Z,97942.69
2023-03-07T02:25:23.574Z,97941.84
2023-03-07T02:26:32.172Z,97947.94
2023-03-07T02:27:39.570Z,97944.41
2023-03-07T02:28:46.644Z,97946.19
2023-03-07T02:29:50.721Z,97940.94
2023-03-07T02:31:05.883Z,97948.72
2023-03-07T02:32:11.845Z,97945.25
2023-03-07T02:33:15.808Z,97942.63
2023-03-07T02:34:26.306Z,97947.75
2023-03-07T02:35:30.108Z,97951.13
2023-03-07T02:36:36.605Z,97947.66
2023-03-07T02:37:44.615Z,97948.72
2023-03-07T02:38:52.962Z,97948.59
2023-03-07T02:40:01.860Z,97952.06
2023-03-07T02:41:12.044Z,97957.22
2023-03-07T02:42:26.547Z,97945.03
2023-03-07T02:43:30.420Z,97949.34
2023-03-07T02:44:34.425Z,97950.38
2023-03-07T02:45:38.206Z,97947.75
2023-03-07T02:46:42.143Z,97945.25
2023-03-07T02:47:46.623Z,97945.97
2023-03-07T02:48:50.615Z,97943.47
2023-03-07T02:49:54.761Z,97945.97
2023-03-07T02:50:58.767Z,97946.81
2023-03-07T02:52:03.130Z,97942.41
2023-03-07T02:53:10.723Z,97940.72
2023-03-07T02:54:15.512Z,97945.03
2023-03-07T02:55:19.650Z,97934.53
2023-03-07T02:56:23.976Z,97931.91
2023-03-07T02:57:27.999Z,97943.25
2023-03-07T02:58:31.884Z,97937.06
2023-03-07T02:59:35.955Z,97945.78
2023-03-07T03:00:39.846Z,97943.06
2023-03-07T03:01:43.981Z,97945.69
2023-03-07T03:02:47.698Z,97939.50
2023-03-07T03:03:51.610Z,97934.25
2023-03-07T03:04:55.680Z,97935.09
2023-03-07T03:05:59.788Z,97943.06
2023-03-07T03:07:04.103Z,97938.56
2023-03-07T03:08:12.759Z,97942.03
2023-03-07T03:09:16.737Z,97939.41
2023-03-07T03:10:20.574Z,97937.63
2023-03-07T03:11:24.572Z,97931.53
2023-03-07T03:12:28.103Z,97929.75
2023-03-07T03:13:31.814Z,97930.47
2023-03-07T03:14:35.350Z,97938.25
2023-03-07T03:15:39.070Z,97929.53
2023-03-07T03:16:42.873Z,97936.50
2023-03-07T03:17:46.917Z,97933.88
2023-03-07T03:18:50.626Z,97935.63
2023-03-07T03:19:54.214Z,97932.94
2023-03-07T03:20:58.139Z,97936.41
2023-03-07T03:22:02.469Z,97932.84
2023-03-07T03:23:10.083Z,97936.41
2023-03-07T03:24:14.670Z,97932.16
2023-03-07T03:25:19.126Z,97931.31
2023-03-07T03:26:22.745Z,97924.28
2023-03-07T03:27:26.736Z,97928.41
2023-03-07T03:28:31.967Z,97936.19
2023-03-07T03:29:36.058Z,97937.97
2023-03-07T03:30:40.423Z,97934.50
2023-03-07T03:31:45.364Z,97931.78
2023-03-07T03:32:49.049Z,97936.09
2023-03-07T03:33:53.276Z,97935.25
2023-03-07T03:34:56.885Z,97934.50
2023-03-07T03:36:13.263Z,97937.34
2023-03-07T03:37:17.243Z,97928.69
2023-03-07T03:38:21.135Z,97936.56
2023-03-07T03:39:25.079Z,97934.91
2023-03-07T03:40:28.717Z,97931.53
2023-03-07T03:41:32.518Z,97928.81
2023-03-07T03:42:36.288Z,97935.09
2023-03-07T03:43:40.617Z,97931.75
2023-03-07T03:44:44.289Z,97934.38
2023-03-07T03:45:58.490Z,97938.75
2023-03-07T03:47:02.414Z,97938.94
2023-03-07T03:48:08.514Z,97932.84
2023-03-07T03:49:13.878Z,97933.78
2023-03-07T03:50:18.298Z,97939.16
2023-03-07T03:51:24.180Z,97929.66
2023-03-07T03:52:28.098Z,97941.94
2023-03-07T03:53:34.339Z,97939.41
2023-03-07T03:54:38.196Z,97943.00
2023-03-07T03:55:42.393Z,97937.75
2023-03-07T03:56:46.101Z,97940.53
2023-03-07T03:57:50.156Z,97939.63
2023-03-07T03:58:57.865Z,97939.63
2023-03-07T04:00:01.435Z,97939.69
2023-03-07T04:01:09.799Z,97942.41
2023-03-07T04:02:14.198Z,97939.16
2023-03-07T04:03:17.936Z,97940.94
2023-03-07T04:04:23.093Z,97947.88
2023-03-07T04:05:27.222Z,97946.25
2023-03-07T04:06:35.030Z,97946.47
2023-03-07T04:07:39.364Z,97950.66
2023-03-07T04:08:43.312Z,97951.81
2023-03-07T04:09:47.050Z,97942.06
2023-03-07T04:10:50.736Z,97943.00
2023-03-07T04:11:54.832Z,97951.50
2023-03-07T04:12:58.492Z,97943.75
2023-03-07T04:14:02.693Z,97943.75
2023-03-07T04:15:12.827Z,97942.91
2023-03-07T04:16:18.229Z,97943.63
2023-03-07T04:17:22.193Z,97947.09
2023-03-07T04:18:26.100Z,97947.09
2023-03-07T04:19:29.691Z,97934.19
2023-03-07T04:20:33.557Z,97943.56
2023-03-07T04:21:37.426Z,97936.59
2023-03-07T04:22:41.338Z,97942.69
2023-03-07T04:23:44.942Z,97941.84
2023-03-07T04:24:48.554Z,97941.84
2023-03-07T04:25:58.744Z,97942.69
2023-03-07T04:27:02.477Z,97940.16
2023-03-07T04:28:09.541Z,97933.97
2023-03-07T04:29:13.649Z,97936.59
2023-03-07T04:30:17.559Z,97940.94
2023-03-07T04:31:27.619Z,97931.56
2023-03-07T04:32:31.627Z,97934.09
2023-03-07T04:33:38.574Z,97939.22
2023-03-07T04:34:42.679Z,97940.00
2023-03-07T04:35:46.976Z,97938.31
2023-03-07T04:36:51.028Z,97944.31
2023-03-07T04:37:54.613Z,97934.75
2023-03-07T04:38:58.249Z,97934.75
2023-03-07T04:40:02.260Z,97932.75
2023-03-07T04:41:13.686Z,97936.22
2023-03-07T04:42:18.539Z,97931.75
2023-03-07T04:43:22.912Z,97937.75
2023-03-07T04:44:27.063Z,97933.34
2023-03-07T04:45:37.449Z,97934.91
2023-03-07T04:46:41.977Z,97940.16
2023-03-07T04:47:45.750Z,97932.28
2023-03-07T04:48:49.380Z,97937.38
2023-03-07T04:49:53.057Z,97935.69
2023-03-07T04:50:57.079Z,97940.00
2023-03-07T04:52:00.866Z,97937.38
2023-03-07T04:53:08.018Z,97937.38
2023-03-07T04:54:13.074Z,97939.16
2023-03-07T04:55:17.072Z,97933.78
2023-03-07T04:56:20.849Z,97939.03
2023-03-07T04:57:24.489Z,97938.84
2023-03-07T04:58:29.932Z,97938.84
2023-03-07T04:59:36.547Z,97942.22
2023-03-07T05:00:45.832Z,97934.44
2023-03-07T05:01:49.645Z,97935.28
2023-03-07T05:02:58.791Z,97943.91
2023-03-07T05:04:03.150Z,97940.53
2023-03-07T05:05:13.341Z,97938.66
2023-03-07T05:06:17.707Z,97936.03
2023-03-07T05:07:21.249Z,97930.03
2023-03-07T05:08:24.888Z,97937.72
2023-03-07T05:09:28.674Z,97930.78
2023-03-07T05:10:34.256Z,97935.00
2023-03-07T05:11:37.852Z,97931.63
2023-03-07T05:12:41.450Z,97933.31
2023-03-07T05:13:45.548Z,97929.75
2023-03-07T05:14:49.295Z,97935.00
2023-03-07T05:15:55.330Z,97934.16
2023-03-07T05:16:58.969Z,97936.69
2023-03-07T05:18:03.151Z,97935.00
2023-03-07T05:19:10.767Z,97937.53
2023-03-07T05:20:14.685Z,97936.78
2023-03-07T05:21:18.332Z,97942.78
2023-03-07T05:22:22.155Z,97937.53
2023-03-07T05:23:27.101Z,97938.66
2023-03-07T05:24:30.777Z,97931.44
2023-03-07T05:25:35.410Z,97937.41
2023-03-07T05:26:39.098Z,97934.78
2023-03-07T05:27:43.276Z,97935.63
2023-03-07T05:28:47.690Z,97937.34
2023-03-07T05:29:51.720Z,97938.19
2023-03-07T05:30:55.958Z,97932.84
2023-03-07T05:31:59.642Z,97932.72
2023-03-07T05:33:03.618Z,97940.50
2023-03-07T05:34:12.893Z,97939.56
2023-03-07T05:35:16.866Z,97937.03
2023-03-07T05:36:20.784Z,97929.06
2023-03-07T05:37:24.753Z,97930.66
2023-03-07T05:38:28.999Z,97932.25
2023-03-07T05:39:32.599Z,97938.22
2023-03-07T05:40:37.127Z,97931.13
2023-03-07T05:41:40.740Z,97930.19
2023-03-07T05:42:44.825Z,97942.34
2023-03-07T05:43:48.481Z,97933.63
2023-03-07T05:44:52.268Z,97933.75
2023-03-07T05:45:55.988Z,97937.94
2023-03-07T05:47:00.079Z,97938.78
2023-03-07T05:48:04.092Z,97940.47
2023-03-07T05:49:11.040Z,97941.31
2023-03-07T05:50:14.974Z,97935.22
2023-03-07T05:51:18.663Z,97942.25
2023-03-07T05:52:22.461Z,97943.88
2023-03-07T05:53:26.663Z,97942.16
2023-03-07T05:54:31.077Z,97941.97
2023-03-07T05:55:35.252Z,97936.00
2023-03-07T05:56:39.123Z,97940.28
2023-03-07T05:57:43.357Z,97941.97
2023-03-07T05:58:46.990Z,97941.78
2023-03-07T05:59:50.968Z,97934.72
2023-03-07T06:00:55.054Z,97938.19
2023-03-07T06:01:59.060Z,97935.38
2023-03-07T06:03:08.711Z,97937.06
2023-03-07T06:04:13.090Z,97933.31
2023-03-07T06:05:17.039Z,97935.84
2023-03-07T06:06:21.034Z,97933.22
2023-03-07T06:07:25.466Z,97937.53
2023-03-07T06:08:29.910Z,97940.03
2023-03-07T06:09:34.507Z,97935.53
2023-03-07T06:10:40.342Z,97945.00
2023-03-07T06:11:44.312Z,97936.19
2023-03-07T06:12:53.699Z,97937.88
2023-03-07T06:13:58.063Z,97935.91
2023-03-07T06:15:02.633Z,97936.53
2023-03-07T06:16:10.971Z,97936.31
2023-03-07T06:17:14.666Z,97933.69
2023-03-07T06:18:19.458Z,97939.72
2023-03-07T06:19:23.943Z,97939.81
2023-03-07T06:20:28.534Z,97931.81
2023-03-07T06:21:32.405Z,97934.13
2023-03-07T06:22:38.544Z,97932.16
2023-03-07T06:23:43.401Z,97938.81
2023-03-07T06:24:47.486Z,97935.22
2023-03-07T06:25:51.309Z,97933.13
2023-03-07T06:26:54.911Z,97938.38
2023-03-07T06:28:01.109Z,97939.44
2023-03-07T06:29:08.944Z,97941.00
2023-03-07T06:30:13.611Z,97934.50
2023-03-07T06:31:19.790Z,97933.56
2023-03-07T06:32:23.535Z,97933.25
2023-03-07T06:33:27.467Z,97942.66
2023-03-07T06:34:31.691Z,97944.09
2023-03-07T06:35:40.080Z,97941.38
2023-03-07T06:36:43.768Z,97936.66
2023-03-07T06:37:47.835Z,97933.81
2023-03-07T06:38:51.892Z,97932.78
2023-03-07T06:39:55.893Z,97936.44
2023-03-07T06:41:00.026Z,97935.19
2023-03-07T06:42:03.815Z,97938.47
2023-03-07T06:43:12.114Z,97938.13
2023-03-07T06:44:18.909Z,97941.41
2023-03-07T06:45:22.530Z,97938.78
2023-03-07T06:46:26.276Z,97943.63
2023-03-07T06:47:30.186Z,97940.16
2023-03-07T06:48:36.185Z,97946.88
2023-03-07T06:49:43.066Z,97949.41
2023-03-07T06:50:47.823Z,97943.72
2023-03-07T06:51:52.899Z,97944.38
2023-03-07T06:52:57.974Z,97943.13
2023-03-07T06:54:01.856Z,97941.22
2023-03-07T06:55:09.254Z,97947.94
2023-03-07T06:56:13.574Z,97945.94
2023-03-07T06:57:17.761Z,97942.47
2023-03-07T06:58:21.857Z,97945.53
2023-03-07T06:59:25.489Z,97949.63
2023-03-07T07:00:29.605Z,97944.78
2023-03-07T07:01:35.871Z,97939.50
2023-03-07T07:02:40.305Z,97938.84
2023-03-07T07:03:44.765Z,97943.63
2023-03-07T07:04:49.036Z,97942.34
2023-03-07T07:05:52.869Z,97942.13
2023-03-07T07:06:56.466Z,97949.81
2023-03-07T07:08:00.990Z,97937.28
2023-03-07T07:09:07.131Z,97942.34
2023-03-07T07:10:13.685Z,97935.69
2023-03-07T07:11:17.382Z,97938.03
2023-03-07T07:12:21.910Z,97937.28
2023-03-07T07:13:25.827Z,97936.81
2023-03-07T07:14:29.591Z,97938.28
2023-03-07T07:15:33.879Z,97936.91
2023-03-07T07:16:37.678Z,97936.63
2023-03-07T07:17:41.409Z,97934.38
2023-03-07T07:18:45.905Z,97933.19
2023-03-07T07:19:49.687Z,97934.88
2023-03-07T07:20:56.939Z,97936.84
2023-03-07T07:22:00.975Z,97942.72
2023-03-07T07:23:04.645Z,97939.66
2023-03-07T07:24:13.247Z,97939.22
2023-03-07T07:25:17.256Z,97935.56
2023-03-07T07:26:20.850Z,97933.31
2023-03-07T07:27:24.633Z,97931.66
2023-03-07T07:28:28.534Z,97928.06
2023-03-07T07:29:32.580Z,97936.00
2023-03-07T07:30:36.329Z,97928.59
2023-03-07T07:31:40.167Z,97920.94
2023-03-07T07:32:45.223Z,97929.84
2023-03-07T07:33:48.993Z,97926.03
2023-03-07T07:34:52.669Z,97930.84
2023-03-07T07:35:56.418Z,97925.00
2023-03-07T07:37:00.263Z,97927.78
2023-03-07T07:38:05.670Z,97928.59
2023-03-07T07:39:11.654Z,97918.00
2023-03-07T07:40:15.435Z,97914.28
2023-03-07T07:41:19.243Z,97919.16
2023-03-07T07:42:23.688Z,97909.00
2023-03-07T07:43:27.362Z,97915.81
2023-03-07T07:44:31.967Z,97917.28
2023-03-07T07:45:40.888Z,97920.59
2023-03-07T07:46:44.994Z,97909.47
2023-03-07T07:47:50.597Z,97917.31
2023-03-07T07:48:56.156Z,97920.22
2023-03-07T07:50:00.052Z,97909.16
2023-03-07T07:51:12.450Z,97904.00
2023-03-07T07:52:22.433Z,97907.03
2023-03-07T07:53:26.041Z,97910.72
2023-03-07T07:54:30.029Z,97924.69
2023-03-07T07:55:33.901Z,97909.22
2023-03-07T07:56:37.777Z,97910.13
2023-03-07T07:57:43.062Z,97906.59
2023-03-07T07:58:48.545Z,97917.88
2023-03-07T07:59:52.645Z,97908.94
2023-03-07T08:00:57.002Z,97905.91
2023-03-07T08:02:02.098Z,97916.94
2023-03-07T08:03:11.919Z,97913.44
2023-03-07T08:04:16.448Z,97902.56
2023-03-07T08:05:22.617Z,97907.41
2023-03-07T08:06:28.508Z,97912.56
2023-03-07T08:07:35.480Z,97905.44
2023-03-07T08:08:39.965Z,97903.31
2023-03-07T08:09:46.688Z,97916.41
2023-03-07T08:10:50.399Z,97903.31
2023-03-07T08:11:54.427Z,97901.44
2023-03-07T08:12:58.258Z,97901.44
2023-03-07T08:14:03.862Z,97901.81
2023-03-07T08:15:11.734Z,97899.84
2023-03-07T08:16:20.101Z,97897.88
2023-03-07T08:17:25.182Z,97896.63
2023-03-07T08:18:31.310Z,97895.81
2023-03-07T08:19:35.450Z,97897.53
2023-03-07T08:20:41.358Z,97890.19
2023-03-07T08:21:45.047Z,97892.38
2023-03-07T08:22:50.759Z,97887.03
2023-03-07T08:23:55.916Z,97894.22
2023-03-07T08:25:01.430Z,97897.19
2023-03-07T08:26:10.767Z,97884.84
2023-03-07T08:27:14.570Z,97889.00
2023-03-07T08:28:18.435Z,97889.00
2023-03-07T08:29:22.952Z,97887.22
2023-03-07T08:30:29.958Z,97881.84
2023-03-07T08:31:44.482Z,97882.84
2023-03-07T08:32:53.912Z,97878.81
2023-03-07T08:33:57.682Z,97877.50
2023-03-07T08:35:01.810Z,97882.91
2023-03-07T08:36:12.580Z,97875.41
2023-03-07T08:37:16.780Z,97878.09
2023-03-07T08:38:20.638Z,97876.41
2023-03-07T08:39:25.496Z,97883.50
2023-03-07T08:40:31.196Z,97876.03
2023-03-07T08:41:35.052Z,97867.41
2023-03-07T08:42:39.033Z,97881.81
2023-03-07T08:43:48.668Z,97875.78
2023-03-07T08:44:52.737Z,97879.97
2023-03-07T08:45:59.281Z,97876.94
2023-03-07T08:47:03.499Z,97871.94
2023-03-07T08:48:11.106Z,97878.13
2023-03-07T08:49:15.267Z,97874.13
2023-03-07T08:50:19.725Z,97873.31
2023-03-07T08:51:23.425Z,97873.81
2023-03-07T08:52:27.104Z,97872.84
2023-03-07T08:53:30.702Z,97883.19
2023-03-07T08:54:34.590Z,97877.50
2023-03-07T08:55:43.549Z,97877.47
2023-03-07T08:56:47.796Z,97882.81
2023-03-07T08:57:51.659Z,97884.00
2023-03-07T08:58:55.422Z,97876.47
2023-03-07T09:00:01.610Z,97886.66
2023-03-07T09:01:08.825Z,97879.66
2023-03-07T09:02:12.984Z,97868.66
2023-03-07T09:03:16.745Z,97874.31
2023-03-07T09:04:20.600Z,97866.50
2023-03-07T09:05:25.170Z,97874.97
2023-03-07T09:06:29.381Z,97872.66
2023-03-07T09:07:34.152Z,97876.56
2023-03-07T09:08:37.876Z,97881.66
2023-03-07T09:09:41.775Z,97880.66
2023-03-07T09:10:45.798Z,97869.72
2023-03-07T09:11:49.548Z,97883.66
2023-03-07T09:12:55.408Z,97881.88
2023-03-07T09:13:59.256Z,97875.66
2023-03-07T09:15:03.226Z,97878.94
2023-03-07T09:16:08.383Z,97876.41
2023-03-07T09:17:13.422Z,97877.53
2023-03-07T09:18:17.233Z,97881.22
2023-03-07T09:19:20.969Z,97873.72
2023-03-07T09:20:25.007Z,97870.38
2023-03-07T09:21:28.902Z,97867.19
2023-03-07T09:22:33.149Z,97879.44
2023-03-07T09:23:36.962Z,97873.31
2023-03-07T09:24:40.815Z,97878.19
2023-03-07T09:25:44.868Z,97868.81
2023-03-07T09:26:49.027Z,97866.31
2023-03-07T09:27:55.620Z,97863.81
2023-03-07T09:28:59.676Z,97864.47
2023-03-07T09:30:03.981Z,97867.34
2023-03-07T09:31:13.923Z,97859.56
2023-03-07T09:32:17.968Z,97863.88
2023-03-07T09:33:23.001Z,97861.63
2023-03-07T09:34:26.897Z,97861.38
2023-03-07T09:35:30.695Z,97861.22
2023-03-07T09:36:34.648Z,97860.53
2023-03-07T09:37:38.664Z,97866.38
2023-03-07T09:38:42.441Z,97862.47
2023-03-07T09:39:50.063Z,97854.41
2023-03-07T09:40:55.840Z,97868.59
2023-03-07T09:42:45.482Z,97865.94
2023-03-07T09:44:06.508Z,97855.09
2023-03-07T09:45:39.255Z,97852.81
2023-03-07T09:47:18.681Z,97851.94
2023-03-07T09:49:04.647Z,97848.03
2023-03-07T09:50:22.994Z,97846.28
2023-03-07T09:51:41.386Z,97854.06
2023-03-07T09:52:51.806Z,97844.75
2023-03-07T09:54:14.213Z,97838.78
2023-03-07T09:55:21.129Z,97845.38
2023-03-07T09:56:52.009Z,97845.91
2023-03-07T09:58:00.956Z,97848.13
2023-03-07T09:59:36.926Z,97840.63
2023-03-07T10:00:46.152Z,97834.81
2023-03-07T10:02:02.067Z,97845.25
2023-03-07T10:03:31.853Z,97837.47
2023-03-07T10:05:08.736Z,97844.81
2023-03-07T10:06:25.611Z,97842.88
2023-03-07T10:07:29.673Z,97833.13
2023-03-07T10:08:38.191Z,97834.03
2023-03-07T10:09:44.243Z,97841.53
2023-03-07T10:11:17.211Z,97835.75
2023-03-07T10:12:54.427Z,97830.97
2023-03-07T10:14:17.117Z,97830.34
2023-03-07T10:15:35.821Z,97832.81
2023-03-07T10:16:56.407Z,97825.53
2023-03-07T10:18:42.982Z,97831.66
2023-03-07T10:19:52.891Z,97836.91
2023-03-07T10:21:18.839Z,97830.81
2023-03-07T10:22:58.677Z,97837.53
2023-03-07T10:24:49.719Z,97824.94
2023-03-07T10:26:12.405Z,97827.53
2023-03-07T10:27:17.342Z,97837.59
2023-03-07T10:28:31.129Z,97831.97
2023-03-07T10:29:54.504Z,97825.63
2023-03-07T10:31:14.273Z,97829.19
2023-03-07T10:32:47.273Z,97816.59
2023-03-07T10:33:55.157Z,97821.47
2023-03-07T10:35:24.432Z,97815.72
2023-03-07T10:36:45.152Z,97814.06
2023-03-07T10:38:00.174Z,97814.56
2023-03-07T10:39:36.520Z,97809.41
2023-03-07T10:41:14.117Z,97800.88
2023-03-07T10:42:24.504Z,97800.47
2023-03-07T10:43:33.700Z,97803.81
2023-03-07T10:44:37.899Z,97788.72
2023-03-07T10:45:42.575Z,97791.75
2023-03-07T10:46:55.885Z,97789.75
2023-03-07T10:48:18.610Z,97789.09
2023-03-07T10:49:30.857Z,97785.16
2023-03-07T10:50:50.253Z,97785.56
2023-03-07T10:52:25.963Z,97783.09
2023-03-07T10:53:35.389Z,97787.09
2023-03-07T10:54:41.732Z,97787.81
2023-03-07T10:55:46.889Z,97787.72
2023-03-07T10:57:10.977Z,97788.72
2023-03-07T10:58:28.450Z,97780.69
2023-03-07T10:59:32.375Z,97785.81
2023-03-07T11:00:36.308Z,97763.03
2023-03-07T11:01:59.208Z,97780.34
2023-03-07T11:03:03.345Z,97770.00
2023-03-07T11:04:30.352Z,97773.25
2023-03-07T11:05:37.004Z,97773.25
2023-03-07T11:06:55.876Z,97779.25
2023-03-07T11:08:01.419Z,97768.66
2023-03-07T11:09:34.136Z,97769.75
2023-03-07T11:10:41.030Z,97764.34
2023-03-07T11:11:52.665Z,97770.09
2023-03-07T11:12:56.790Z,97758.34
2023-03-07T11:14:14.831Z,97749.50
2023-03-07T11:15:24.816Z,97755.19
2023-03-07T11:16:28.512Z,97771.88
2023-03-07T11:17:47.717Z,97767.41
2023-03-07T11:18:52.023Z,97764.38
2023-03-07T11:19:57.681Z,97759.22
2023-03-07T11:21:01.533Z,97760.19
2023-03-07T11:22:33.725Z,97757.19
2023-03-07T11:23:37.643Z,97750.97
2023-03-07T11:24:55.668Z,97754.22
2023-03-07T11:26:23.105Z,97751.28
2023-03-07T11:27:59.028Z,97754.91
2023-03-07T11:29:14.184Z,97747.25
2023-03-07T11:30:28.998Z,97754.44
2023-03-07T11:31:47.218Z,97761.53
2023-03-07T11:33:29.233Z,97750.25
2023-03-07T11:35:03.109Z,97751.22
2023-03-07T11:36:32.187Z,97747.53
2023-03-07T11:37:54.224Z,97741.72
2023-03-07T11:39:34.944Z,97749.91
2023-03-07T11:41:31.196Z,97748.72
2023-03-07T11:43:09.635Z,97737.88
2023-03-07T11:45:00.949Z,97732.88
2023-03-07T11:46:41.014Z,97722.97
2023-03-07T11:48:25.874Z,97729.47
2023-03-07T11:49:56.574Z,97727.69
2023-03-07T11:51:03.495Z,97726.09
2023-03-07T11:52:33.409Z,97722.91
2023-03-07T11:54:08.340Z,97724.38
2023-03-07T11:55:58.294Z,97733.50
2023-03-07T11:57:51.474Z,97716.31
2023-03-07T11:59:30.531Z,97721.84
2023-03-07T12:00:49.823Z,97725.78
2023-03-07T12:02:23.508Z,97720.91
2023-03-07T12:03:48.485Z,97714.97
2023-03-07T12:05:23.622Z,97714.25
2023-03-07T12:07:08.690Z,97720.06
2023-03-07T12:08:39.100Z,97713.66
2023-03-07T12:10:02.405Z,97703.78
2023-03-07T12:11:15.611Z,97722.38
2023-03-07T12:12:54.908Z,97710.97
2023-03-07T12:14:01.363Z,97716.38
2023-03-07T12:15:47.925Z,97717.34
2023-03-07T12:17:31.337Z,97699.81
2023-03-07T12:19:24.348Z,97711.94
2023-03-07T12:20:58.968Z,97711.94
2023-03-07T12:22:29.014Z,97703.16
2023-03-07T12:23:39.304Z,97715.66
2023-03-07T12:25:17.810Z,97723.59
2023-03-07T12:27:00.785Z,97727.34
2023-03-07T12:28:21.863Z,97720.38
2023-03-07T12:29:45.817Z,97716.25
2023-03-07T12:31:10.702Z,97707.09
2023-03-07T12:32:25.391Z,97713.34
2023-03-07T12:33:50.972Z,97711.69
2023-03-07T12:35:29.825Z,97704.84
2023-03-07T12:36:36.385Z,97704.41
2023-03-07T12:38:10.225Z,97710.66
2023-03-07T12:39:31.436Z,97706.34
2023-03-07T12:40:49.352Z,97702.44
2023-03-07T12:42:15.788Z,97702.06
2023-03-07T12:43:45.893Z,97697.50
2023-03-07T12:45:49.289Z,97698.31
2023-03-07T12:47:13.739Z,97683.16
2023-03-07T12:48:38.458Z,97702.03
2023-03-07T12:49:54.245Z,97700.34
2023-03-07T12:51:16.038Z,97700.50
2023-03-07T12:52:50.825Z,97705.66
2023-03-07T12:54:27.904Z,97695.34
2023-03-07T12:56:10.073Z,97701.66
2023-03-07T12:57:26.893Z,97702.09
2023-03-07T12:59:11.619Z,97698.03
2023-03-07T13:00:23.098Z,97689.53
2023-03-07T13:01:58.872Z,97699.28
2023-03-07T13:03:07.028Z,97701.09
2023-03-07T13:04:32.237Z,97705.97
2023-03-07T13:05:39.650Z,97694.81
2023-03-07T13:06:46.807Z,97698.44
2023-03-07T13:07:52.213Z,97698.16
2023-03-07T13:09:00.822Z,97703.09
2023-03-07T13:10:08.350Z,97700.44
2023-03-07T13:11:22.849Z,97690.69
2023-03-07T13:12:31.323Z,97700.72
2023-03-07T13:13:43.884Z,97698.81
2023-03-07T13:15:16.517Z,97689.91
2023-03-07T13:16:38.788Z,97683.78
2023-03-07T13:17:42.479Z,97693.53
2023-03-07T13:18:46.428Z,97686.88
2023-03-07T13:19:57.182Z,97686.44
2023-03-07T13:21:11.189Z,97689.63
2023-03-07T13:22:18.126Z,97692.88
2023-03-07T13:23:28.362Z,97690.91
2023-03-07T13:24:40.547Z,97684.78
2023-03-07T13:25:58.384Z,97683.13
2023-03-07T13:27:18.436Z,97685.50
2023-03-07T13:28:40.802Z,97683.88
2023-03-07T13:30:07.879Z,97677.06
2023-03-07T13:31:16.805Z,97681.53
2023-03-07T13:32:51.309Z,97678.63
2023-03-07T13:33:56.162Z,97680.69
2023-03-07T13:35:00.603Z,97674.41
2023-03-07T13:36:04.733Z,97671.91
2023-03-07T13:37:51.974Z,97671.06
2023-03-07T13:38:58.500Z,97676.72